sensor_id;sensor_type;location;lat;lon;timestamp;pressure;altitude;pressure_sealevel;temperature;humidity
53262;BME280;39658;51.090;-1.786;2023-05-23T00:02:09;102185.66;;;8.89;100.00
53262;BME280;39658;51.090;-1.786;2023-05-23T00:04:37;102179.59;;;8.87;100.00
53262;BME280;39658;51.090;-1.786;2023-05-23T00:07:04;102177.91;;;8.85;100.00
53262;BME280;39658;51.090;-1.786;2023-05-23T00:09:31;102163.09;;;8.82;100.00
53262;BME280;39658;51.090;-1.786;2023-05-23T00:11:59;102157.66;;;8.87;100.00
53262;BME280;39658;51.090;-1.786;2023-05-23T00:14:27;102146.13;;;8.91;100.00
53262;BME280;39658;51.090;-1.786;2023-05-23T00:16:58;102135.50;;;8.94;100.00
53262;BME280;39658;51.090;-1.786;2023-05-23T00:19:25;102127.63;;;8.94;100.00
53262;BME280;39658;51.090;-1.786;2023-05-23T00:21:52;102123.25;;;8.93;100.00
53262;BME280;39658;51.090;-1.786;2023-05-23T00:24:23;102116.41;;;8.89;100.00
53262;BME280;39658;51.090;-1.786;2023-05-23T00:26:50;102126.94;;;8.89;100.00
53262;BME280;39658;51.090;-1.786;2023-05-23T00:29:18;102140.13;;;8.87;100.00
53262;BME280;39658;51.090;-1.786;2023-05-23T00:31:45;102141.88;;;8.87;100.00
53262;BME280;39658;51.090;-1.786;2023-05-23T00:34:12;102149.78;;;8.87;100.00
53262;BME280;39658;51.090;-1.786;2023-05-23T00:36:39;102156.78;;;8.88;100.00
53262;BME280;39658;51.090;-1.786;2023-05-23T00:39:06;102152.53;;;8.84;100.00
53262;BME280;39658;51.090;-1.786;2023-05-23T00:41:33;102168.34;;;8.82;100.00
53262;BME280;39658;51.090;-1.786;2023-05-23T00:44:00;102164.25;;;8.75;100.00
53262;BME280;39658;51.090;-1.786;2023-05-23T00:46:29;102174.09;;;8.68;100.00
53262;BME280;39658;51.090;-1.786;2023-05-23T00:48:56;102187.25;;;8.68;100.00
53262;BME280;39658;51.090;-1.786;2023-05-23T00:51:23;102195.28;;;8.63;100.00
53262;BME280;39658;51.090;-1.786;2023-05-23T00:53:50;102192.91;;;8.56;100.00
53262;BME280;39658;51.090;-1.786;2023-05-23T00:56:17;102196.63;;;8.50;100.00
53262;BME280;39658;51.090;-1.786;2023-05-23T00:58:45;102199.50;;;8.42;100.00
53262;BME280;39658;51.090;-1.786;2023-05-23T01:01:14;102216.34;;;8.35;100.00
53262;BME280;39658;51.090;-1.786;2023-05-23T01:03:42;102222.78;;;8.26;100.00
53262;BME280;39658;51.090;-1.786;2023-05-23T01:06:10;102233.50;;;8.20;100.00
53262;BME280;39658;51.090;-1.786;2023-05-23T01:08:37;102245.06;;;8.15;100.00
53262;BME280;39658;51.090;-1.786;2023-05-23T01:11:11;102238.22;;;8.09;100.00
53262;BME280;39658;51.090;-1.786;2023-05-23T01:13:43;102242.75;;;8.04;100.00
53262;BME280;39658;51.090;-1.786;2023-05-23T01:16:15;102244.72;;;7.97;100.00
53262;BME280;39658;51.090;-1.786;2023-05-23T01:18:49;102246.69;;;7.89;100.00
53262;BME280;39658;51.090;-1.786;2023-05-23T01:21:23;102235.66;;;7.78;100.00
53262;BME280;39658;51.090;-1.786;2023-05-23T01:24:06;102248.88;;;7.75;100.00
53262;BME280;39658;51.090;-1.786;2023-05-23T01:26:43;102240.25;;;7.71;100.00
53262;BME280;39658;51.090;-1.786;2023-05-23T01:29:20;102241.00;;;7.75;100.00
53262;BME280;39658;51.090;-1.786;2023-05-23T01:31:50;102250.47;;;7.80;100.00
53262;BME280;39658;51.090;-1.786;2023-05-23T01:34:18;102246.84;;;7.84;100.00
53262;BME280;39658;51.090;-1.786;2023-05-23T01:36:49;102245.03;;;7.86;100.00
53262;BME280;39658;51.090;-1.786;2023-05-23T01:39:19;102236.34;;;7.84;100.00
53262;BME280;39658;51.090;-1.786;2023-05-23T01:41:47;102237.13;;;7.88;100.00
53262;BME280;39658;51.090;-1.786;2023-05-23T01:44:16;102231.88;;;7.88;100.00
53262;BME280;39658;51.090;-1.786;2023-05-23T01:46:43;102230.91;;;7.90;100.00
53262;BME280;39658;51.090;-1.786;2023-05-23T01:49:12;102230.66;;;7.98;100.00
53262;BME280;39658;51.090;-1.786;2023-05-23T01:51:39;102233.97;;;8.05;100.00
53262;BME280;39658;51.090;-1.786;2023-05-23T01:54:07;102226.72;;;8.13;100.00
53262;BME280;39658;51.090;-1.786;2023-05-23T01:56:34;102227.41;;;8.18;100.00
53262;BME280;39658;51.090;-1.786;2023-05-23T01:59:01;102218.63;;;8.19;100.00
53262;BME280;39658;51.090;-1.786;2023-05-23T02:01:30;102215.91;;;8.22;100.00
53262;BME280;39658;51.090;-1.786;2023-05-23T02:03:56;102216.72;;;8.24;100.00
53262;BME280;39658;51.090;-1.786;2023-05-23T02:06:23;102220.41;;;8.19;100.00
53262;BME280;39658;51.090;-1.786;2023-05-23T02:08:50;102214.28;;;8.18;100.00
53262;BME280;39658;51.090;-1.786;2023-05-23T02:11:17;102216.16;;;8.15;100.00
53262;BME280;39658;51.090;-1.786;2023-05-23T02:13:44;102217.09;;;8.12;100.00
53262;BME280;39658;51.090;-1.786;2023-05-23T02:16:10;102217.34;;;8.04;100.00
53262;BME280;39658;51.090;-1.786;2023-05-23T02:18:39;102220.09;;;8.00;100.00
53262;BME280;39658;51.090;-1.786;2023-05-23T02:21:06;102218.56;;;7.94;100.00
53262;BME280;39658;51.090;-1.786;2023-05-23T02:23:33;102221.38;;;7.88;100.00
53262;BME280;39658;51.090;-1.786;2023-05-23T02:25:59;102213.75;;;7.79;100.00
53262;BME280;39658;51.090;-1.786;2023-05-23T02:28:26;102228.78;;;7.73;100.00
53262;BME280;39658;51.090;-1.786;2023-05-23T02:30:53;102229.69;;;7.72;100.00
53262;BME280;39658;51.090;-1.786;2023-05-23T02:33:20;102230.59;;;7.71;100.00
53262;BME280;39658;51.090;-1.786;2023-05-23T02:35:48;102226.25;;;7.70;100.00
53262;BME280;39658;51.090;-1.786;2023-05-23T02:38:15;102230.78;;;7.65;100.00
53262;BME280;39658;51.090;-1.786;2023-05-23T02:40:44;102231.75;;;7.61;100.00
53262;BME280;39658;51.090;-1.786;2023-05-23T02:43:10;102240.69;;;7.55;100.00
53262;BME280;39658;51.090;-1.786;2023-05-23T02:45:37;102241.69;;;7.51;100.00
53262;BME280;39658;51.090;-1.786;2023-05-23T02:48:04;102242.75;;;7.46;100.00
53262;BME280;39658;51.090;-1.786;2023-05-23T02:50:31;102245.50;;;7.41;100.00
53262;BME280;39658;51.090;-1.786;2023-05-23T02:52:59;102244.69;;;7.37;100.00
53262;BME280;39658;51.090;-1.786;2023-05-23T02:55:26;102248.38;;;7.32;100.00
53262;BME280;39658;51.090;-1.786;2023-05-23T02:57:53;102254.47;;;7.32;100.00
53262;BME280;39658;51.090;-1.786;2023-05-23T03:00:21;102251.84;;;7.32;100.00
53262;BME280;39658;51.090;-1.786;2023-05-23T03:02:47;102257.84;;;7.36;100.00
53262;BME280;39658;51.090;-1.786;2023-05-23T03:05:14;102261.25;;;7.41;100.00
53262;BME280;39658;51.090;-1.786;2023-05-23T03:07:41;102248.03;;;7.44;100.00
53262;BME280;39658;51.090;-1.786;2023-05-23T03:10:10;102248.78;;;7.48;100.00
53262;BME280;39658;51.090;-1.786;2023-05-23T03:12:36;102249.56;;;7.51;100.00
53262;BME280;39658;51.090;-1.786;2023-05-23T03:15:04;102243.50;;;7.49;100.00
53262;BME280;39658;51.090;-1.786;2023-05-23T03:17:31;102251.38;;;7.49;100.00
53262;BME280;39658;51.090;-1.786;2023-05-23T03:19:58;102248.78;;;7.48;100.00
53262;BME280;39658;51.090;-1.786;2023-05-23T03:22:24;102244.53;;;7.44;100.00
53262;BME280;39658;51.090;-1.786;2023-05-23T03:24:51;102241.34;;;7.32;100.00
53262;BME280;39658;51.090;-1.786;2023-05-23T03:27:20;102252.13;;;7.22;100.00
53262;BME280;39658;51.090;-1.786;2023-05-23T03:29:46;102245.53;;;7.07;100.00
53262;BME280;39658;51.090;-1.786;2023-05-23T03:32:13;102238.00;;;6.94;100.00
53262;BME280;39658;51.090;-1.786;2023-05-23T03:34:40;102249.56;;;6.87;100.00
53262;BME280;39658;51.090;-1.786;2023-05-23T03:37:07;102248.00;;;6.80;100.00
53262;BME280;39658;51.090;-1.786;2023-05-23T03:39:33;102261.13;;;6.78;100.00
53262;BME280;39658;51.090;-1.786;2023-05-23T03:42:00;102254.31;;;6.73;100.00
53262;BME280;39658;51.090;-1.786;2023-05-23T03:44:28;102261.47;;;6.64;100.00
53262;BME280;39658;51.090;-1.786;2023-05-23T03:46:55;102259.88;;;6.59;100.00
53262;BME280;39658;51.090;-1.786;2023-05-23T03:49:22;102257.47;;;6.51;100.00
53262;BME280;39658;51.090;-1.786;2023-05-23T03:51:48;102261.16;;;6.42;100.00
53262;BME280;39658;51.090;-1.786;2023-05-23T03:54:15;102266.59;;;6.33;100.00
53262;BME280;39658;51.090;-1.786;2023-05-23T03:56:43;102263.31;;;6.25;100.00
53262;BME280;39658;51.090;-1.786;2023-05-23T03:59:10;102271.34;;;6.17;100.00
53262;BME280;39658;51.090;-1.786;2023-05-23T04:01:38;102263.66;;;6.09;100.00
53262;BME280;39658;51.090;-1.786;2023-05-23T04:04:05;102277.63;;;6.08;100.00
53262;BME280;39658;51.090;-1.786;2023-05-23T04:06:32;102276.78;;;6.08;100.00
53262;BME280;39658;51.090;-1.786;2023-05-23T04:08:58;102281.09;;;6.09;100.00
53262;BME280;39658;51.090;-1.786;2023-05-23T04:11:25;102281.09;;;6.09;100.00
53262;BME280;39658;51.090;-1.786;2023-05-23T04:13:52;102283.66;;;6.12;100.00
53262;BME280;39658;51.090;-1.786;2023-05-23T04:16:19;102286.28;;;6.12;100.00
53262;BME280;39658;51.090;-1.786;2023-05-23T04:18:48;102287.22;;;6.09;100.00
53262;BME280;39658;51.090;-1.786;2023-05-23T04:21:16;102294.25;;;6.06;100.00
53262;BME280;39658;51.090;-1.786;2023-05-23T04:23:42;102303.03;;;6.05;100.00
53262;BME280;39658;51.090;-1.786;2023-05-23T04:26:10;102306.56;;;6.02;100.00
53262;BME280;39658;51.090;-1.786;2023-05-23T04:28:38;102315.22;;;6.06;100.00
53262;BME280;39658;51.090;-1.786;2023-05-23T04:31:05;102315.88;;;6.17;100.00
53262;BME280;39658;51.090;-1.786;2023-05-23T04:33:32;102316.69;;;6.19;100.00
53262;BME280;39658;51.090;-1.786;2023-05-23T04:36:00;102317.50;;;6.21;100.00
53262;BME280;39658;51.090;-1.786;2023-05-23T04:38:27;102317.38;;;6.27;100.00
53262;BME280;39658;51.090;-1.786;2023-05-23T04:40:54;102320.75;;;6.33;100.00
53262;BME280;39658;51.090;-1.786;2023-05-23T04:43:22;102328.53;;;6.37;100.00
53262;BME280;39658;51.090;-1.786;2023-05-23T04:45:51;102327.66;;;6.35;100.00
53262;BME280;39658;51.090;-1.786;2023-05-23T04:48:19;102338.09;;;6.38;100.00
53262;BME280;39658;51.090;-1.786;2023-05-23T04:50:46;102347.66;;;6.41;100.00
53262;BME280;39658;51.090;-1.786;2023-05-23T04:53:16;102345.00;;;6.42;100.00
53262;BME280;39658;51.090;-1.786;2023-05-23T04:55:43;102350.13;;;6.47;100.00
53262;BME280;39658;51.090;-1.786;2023-05-23T04:58:10;102350.84;;;6.54;100.00
53262;BME280;39658;51.090;-1.786;2023-05-23T05:00:37;102358.50;;;6.63;100.00
53262;BME280;39658;51.090;-1.786;2023-05-23T05:03:04;102369.69;;;6.71;100.00
53262;BME280;39658;51.090;-1.786;2023-05-23T05:05:30;102372.06;;;6.80;100.00
53262;BME280;39658;51.090;-1.786;2023-05-23T05:07:57;102369.19;;;6.91;100.00
53262;BME280;39658;51.090;-1.786;2023-05-23T05:10:25;102368.88;;;7.04;100.00
53262;BME280;39658;51.090;-1.786;2023-05-23T05:12:52;102370.38;;;7.14;100.00
53262;BME280;39658;51.090;-1.786;2023-05-23T05:15:19;102370.16;;;7.23;100.00
53262;BME280;39658;51.090;-1.786;2023-05-23T05:17:45;102374.34;;;7.30;100.00
53262;BME280;39658;51.090;-1.786;2023-05-23T05:20:12;102374.03;;;7.43;100.00
53262;BME280;39658;51.090;-1.786;2023-05-23T05:22:39;102377.25;;;7.52;100.00
53262;BME280;39658;51.090;-1.786;2023-05-23T05:25:08;102373.50;;;7.61;100.00
53262;BME280;39658;51.090;-1.786;2023-05-23T05:27:37;102375.81;;;7.73;100.00
53262;BME280;39658;51.090;-1.786;2023-05-23T05:30:06;102366.69;;;7.87;100.00
53262;BME280;39658;51.090;-1.786;2023-05-23T05:32:33;102383.78;;;8.02;100.00
53262;BME280;39658;51.090;-1.786;2023-05-23T05:35:00;102371.16;;;8.15;100.00
53262;BME280;39658;51.090;-1.786;2023-05-23T05:37:27;102376.81;;;8.31;100.00
53262;BME280;39658;51.090;-1.786;2023-05-23T05:39:54;102367.69;;;8.44;100.00
53262;BME280;39658;51.090;-1.786;2023-05-23T05:42:21;102369.19;;;8.51;100.00
53262;BME280;39658;51.090;-1.786;2023-05-23T05:44:50;102364.44;;;8.64;100.00
53262;BME280;39658;51.090;-1.786;2023-05-23T05:47:16;102363.13;;;8.77;100.00
53262;BME280;39658;51.090;-1.786;2023-05-23T05:49:43;102360.25;;;8.85;100.00
53262;BME280;39658;51.090;-1.786;2023-05-23T05:52:10;102358.16;;;8.96;100.00
53262;BME280;39658;51.090;-1.786;2023-05-23T05:54:37;102356.16;;;9.03;100.00
53262;BME280;39658;51.090;-1.786;2023-05-23T05:57:04;102350.66;;;9.11;100.00
53262;BME280;39658;51.090;-1.786;2023-05-23T05:59:30;102353.13;;;9.15;100.00
53262;BME280;39658;51.090;-1.786;2023-05-23T06:01:59;102361.75;;;9.19;100.00
53262;BME280;39658;51.090;-1.786;2023-05-23T06:04:25;102353.59;;;9.27;100.00
53262;BME280;39658;51.090;-1.786;2023-05-23T06:06:52;102362.34;;;9.27;100.00
53262;BME280;39658;51.090;-1.786;2023-05-23T06:09:19;102355.22;;;9.31;100.00
53262;BME280;39658;51.090;-1.786;2023-05-23T06:11:46;102361.88;;;9.41;100.00
53262;BME280;39658;51.090;-1.786;2023-05-23T06:14:13;102363.28;;;9.51;100.00
53262;BME280;39658;51.090;-1.786;2023-05-23T06:16:40;102365.38;;;9.67;100.00
53262;BME280;39658;51.090;-1.786;2023-05-23T06:19:08;102364.38;;;9.71;100.00
53262;BME280;39658;51.090;-1.786;2023-05-23T06:21:34;102355.25;;;9.80;100.00
53262;BME280;39658;51.090;-1.786;2023-05-23T06:24:01;102362.81;;;9.89;100.00
53262;BME280;39658;51.090;-1.786;2023-05-23T06:26:28;102361.75;;;9.95;100.00
53262;BME280;39658;51.090;-1.786;2023-05-23T06:28:55;102355.25;;;10.03;100.00
53262;BME280;39658;51.090;-1.786;2023-05-23T06:31:22;102363.44;;;10.19;100.00
53262;BME280;39658;51.090;-1.786;2023-05-23T06:33:48;102353.25;;;10.34;100.00
53262;BME280;39658;51.090;-1.786;2023-05-23T06:36:16;102347.38;;;10.49;100.00
53262;BME280;39658;51.090;-1.786;2023-05-23T06:38:43;102336.88;;;10.70;100.00
53262;BME280;39658;51.090;-1.786;2023-05-23T06:41:10;102321.91;;;10.92;100.00
53262;BME280;39658;51.090;-1.786;2023-05-23T06:43:37;102311.81;;;11.02;100.00
53262;BME280;39658;51.090;-1.786;2023-05-23T06:46:04;102303.28;;;11.16;100.00
53262;BME280;39658;51.090;-1.786;2023-05-23T06:48:31;102279.06;;;11.27;100.00
53262;BME280;39658;51.090;-1.786;2023-05-23T06:50:57;102265.72;;;11.30;100.00
53262;BME280;39658;51.090;-1.786;2023-05-23T06:53:26;102266.22;;;11.38;100.00
53262;BME280;39658;51.090;-1.786;2023-05-23T06:55:52;102263.97;;;11.49;100.00
53262;BME280;39658;51.090;-1.786;2023-05-23T06:58:21;102258.34;;;11.57;100.00
53262;BME280;39658;51.090;-1.786;2023-05-23T07:00:49;102254.69;;;11.79;100.00
53262;BME280;39658;51.090;-1.786;2023-05-23T07:03:16;102243.56;;;11.91;100.00
53262;BME280;39658;51.090;-1.786;2023-05-23T07:05:43;102237.88;;;12.00;100.00
53262;BME280;39658;51.090;-1.786;2023-05-23T07:08:09;102234.47;;;12.16;100.00
53262;BME280;39658;51.090;-1.786;2023-05-23T07:10:37;102213.66;;;12.27;100.00
53262;BME280;39658;51.090;-1.786;2023-05-23T07:13:05;102199.66;;;12.43;100.00
53262;BME280;39658;51.090;-1.786;2023-05-23T07:15:32;102193.53;;;12.60;100.00
53262;BME280;39658;51.090;-1.786;2023-05-23T07:17:59;102186.44;;;12.78;100.00
53262;BME280;39658;51.090;-1.786;2023-05-23T07:20:25;102179.16;;;12.99;100.00
53262;BME280;39658;51.090;-1.786;2023-05-23T07:22:52;102161.03;;;13.24;100.00
53262;BME280;39658;51.090;-1.786;2023-05-23T07:25:19;102119.38;;;13.44;100.00
53262;BME280;39658;51.090;-1.786;2023-05-23T07:27:49;102096.69;;;13.70;100.00
53262;BME280;39658;51.090;-1.786;2023-05-23T07:30:17;102087.47;;;13.92;100.00
53262;BME280;39658;51.090;-1.786;2023-05-23T07:32:44;102064.63;;;14.19;100.00
53262;BME280;39658;51.090;-1.786;2023-05-23T07:35:12;102039.94;;;14.48;100.00
53262;BME280;39658;51.090;-1.786;2023-05-23T07:37:39;101924.69;;;14.66;100.00
53262;BME280;39658;51.090;-1.786;2023-05-23T07:40:06;101849.88;;;14.60;100.00
53262;BME280;39658;51.090;-1.786;2023-05-23T07:42:34;101844.22;;;14.66;100.00
53262;BME280;39658;51.090;-1.786;2023-05-23T07:45:03;101860.56;;;14.72;100.00
53262;BME280;39658;51.090;-1.786;2023-05-23T07:47:30;101815.75;;;14.68;100.00
53262;BME280;39658;51.090;-1.786;2023-05-23T07:49:57;101786.06;;;14.48;100.00
53262;BME280;39658;51.090;-1.786;2023-05-23T07:52:28;101807.78;;;14.41;100.00
53262;BME280;39658;51.090;-1.786;2023-05-23T07:54:54;101822.84;;;14.40;100.00
53262;BME280;39658;51.090;-1.786;2023-05-23T07:57:21;101776.81;;;14.54;100.00
53262;BME280;39658;51.090;-1.786;2023-05-23T07:59:49;101772.38;;;14.82;100.00
53262;BME280;39658;51.090;-1.786;2023-05-23T08:02:18;101670.75;;;14.93;100.00
53262;BME280;39658;51.090;-1.786;2023-05-23T08:04:45;101670.72;;;15.05;100.00
53262;BME280;39658;51.090;-1.786;2023-05-23T08:07:13;101647.03;;;15.15;100.00
53262;BME280;39658;51.090;-1.786;2023-05-23T08:09:40;101663.47;;;15.33;100.00
53262;BME280;39658;51.090;-1.786;2023-05-23T08:12:07;101643.59;;;15.39;100.00
53262;BME280;39658;51.090;-1.786;2023-05-23T08:14:34;101711.50;;;15.56;100.00
53262;BME280;39658;51.090;-1.786;2023-05-23T08:17:02;101640.66;;;15.68;100.00
53262;BME280;39658;51.090;-1.786;2023-05-23T08:19:30;101618.44;;;15.93;100.00
53262;BME280;39658;51.090;-1.786;2023-05-23T08:21:57;101572.78;;;16.10;100.00
53262;BME280;39658;51.090;-1.786;2023-05-23T08:24:24;101632.94;;;16.24;100.00
53262;BME280;39658;51.090;-1.786;2023-05-23T08:26:51;101604.25;;;16.17;100.00
53262;BME280;39658;51.090;-1.786;2023-05-23T08:29:18;101570.28;;;16.20;100.00
53262;BME280;39658;51.090;-1.786;2023-05-23T08:31:44;101580.78;;;16.22;100.00
53262;BME280;39658;51.090;-1.786;2023-05-23T08:34:11;101588.41;;;16.15;100.00
53262;BME280;39658;51.090;-1.786;2023-05-23T08:36:40;101576.94;;;16.14;100.00
53262;BME280;39658;51.090;-1.786;2023-05-23T08:39:07;101582.06;;;16.05;100.00
53262;BME280;39658;51.090;-1.786;2023-05-23T08:41:34;101601.03;;;16.00;100.00
53262;BME280;39658;51.090;-1.786;2023-05-23T08:44:01;101582.16;;;15.92;100.00
53262;BME280;39658;51.090;-1.786;2023-05-23T08:46:28;101572.31;;;15.81;100.00
53262;BME280;39658;51.090;-1.786;2023-05-23T08:48:57;101616.38;;;15.96;100.00
53262;BME280;39658;51.090;-1.786;2023-05-23T08:51:25;101645.66;;;16.32;100.00
53262;BME280;39658;51.090;-1.786;2023-05-23T08:53:54;101577.84;;;16.49;100.00
53262;BME280;39658;51.090;-1.786;2023-05-23T08:56:22;101561.63;;;16.63;100.00
53262;BME280;39658;51.090;-1.786;2023-05-23T08:58:50;101562.50;;;16.75;100.00
53262;BME280;39658;51.090;-1.786;2023-05-23T09:01:17;101503.91;;;16.75;100.00
53262;BME280;39658;51.090;-1.786;2023-05-23T09:03:46;101520.34;;;16.80;100.00
53262;BME280;39658;51.090;-1.786;2023-05-23T09:06:14;101490.84;;;16.72;100.00
53262;BME280;39658;51.090;-1.786;2023-05-23T09:08:42;101491.06;;;16.80;100.00
53262;BME280;39658;51.090;-1.786;2023-05-23T09:11:12;101490.22;;;16.80;100.00
53262;BME280;39658;51.090;-1.786;2023-05-23T09:13:39;101511.41;;;16.93;100.00
53262;BME280;39658;51.090;-1.786;2023-05-23T09:16:07;101476.91;;;16.91;100.00
53262;BME280;39658;51.090;-1.786;2023-05-23T09:18:38;101476.78;;;16.93;100.00
53262;BME280;39658;51.090;-1.786;2023-05-23T09:21:06;101462.75;;;16.91;100.00
53262;BME280;39658;51.090;-1.786;2023-05-23T09:23:34;101468.66;;;16.94;100.00
53262;BME280;39658;51.090;-1.786;2023-05-23T09:26:02;101468.31;;;16.99;100.00
53262;BME280;39658;51.090;-1.786;2023-05-23T09:28:32;101445.91;;;17.01;100.00
53262;BME280;39658;51.090;-1.786;2023-05-23T09:30:59;101455.31;;;17.38;100.00
53262;BME280;39658;51.090;-1.786;2023-05-23T09:33:34;101459.94;;;17.57;100.00
53262;BME280;39658;51.090;-1.786;2023-05-23T09:36:03;101432.41;;;17.89;100.00
53262;BME280;39658;51.090;-1.786;2023-05-23T09:38:30;101286.47;;;18.10;100.00
53262;BME280;39658;51.090;-1.786;2023-05-23T09:40:58;101184.78;;;18.14;100.00
53262;BME280;39658;51.090;-1.786;2023-05-23T09:43:24;101122.28;;;18.16;100.00
53262;BME280;39658;51.090;-1.786;2023-05-23T09:45:52;101320.44;;;18.08;100.00
53262;BME280;39658;51.090;-1.786;2023-05-23T09:48:27;101428.41;;;17.83;100.00
53262;BME280;39658;51.090;-1.786;2023-05-23T09:50:55;101437.66;;;17.79;100.00
53262;BME280;39658;51.090;-1.786;2023-05-23T09:53:22;101464.59;;;18.18;100.00
53262;BME280;39658;51.090;-1.786;2023-05-23T09:55:50;101507.59;;;18.46;100.00
53262;BME280;39658;51.090;-1.786;2023-05-23T09:58:18;101514.47;;;18.48;100.00
53262;BME280;39658;51.090;-1.786;2023-05-23T10:00:47;101473.03;;;18.95;100.00
53262;BME280;39658;51.090;-1.786;2023-05-23T10:03:19;101580.16;;;18.61;100.00
53262;BME280;39658;51.090;-1.786;2023-05-23T10:05:49;101549.94;;;18.60;100.00
53262;BME280;39658;51.090;-1.786;2023-05-23T10:08:19;101505.84;;;18.76;100.00
53262;BME280;39658;51.090;-1.786;2023-05-23T10:13:48;101608.44;;;18.42;100.00
53262;BME280;39658;51.090;-1.786;2023-05-23T10:16:18;101574.22;;;18.78;100.00
53262;BME280;39658;51.090;-1.786;2023-05-23T10:18:56;101639.66;;;19.25;100.00
53262;BME280;39658;51.090;-1.786;2023-05-23T10:21:25;101621.25;;;19.31;100.00
53262;BME280;39658;51.090;-1.786;2023-05-23T10:23:57;101664.38;;;19.58;100.00
53262;BME280;39658;51.090;-1.786;2023-05-23T10:26:25;101658.25;;;20.35;100.00
53262;BME280;39658;51.090;-1.786;2023-05-23T10:28:53;101629.56;;;21.12;100.00
53262;BME280;39658;51.090;-1.786;2023-05-23T10:31:20;101707.09;;;21.06;100.00
53262;BME280;39658;51.090;-1.786;2023-05-23T10:33:54;101747.91;;;20.21;100.00
53262;BME280;39658;51.090;-1.786;2023-05-23T10:36:29;101700.88;;;19.68;100.00
53262;BME280;39658;51.090;-1.786;2023-05-23T10:39:05;101701.53;;;18.89;100.00
53262;BME280;39658;51.090;-1.786;2023-05-23T10:41:40;101689.22;;;18.77;100.00
53262;BME280;39658;51.090;-1.786;2023-05-23T10:44:11;101637.75;;;18.54;100.00
53262;BME280;39658;51.090;-1.786;2023-05-23T10:46:52;101598.34;;;18.25;100.00
53262;BME280;39658;51.090;-1.786;2023-05-23T10:49:20;101580.19;;;18.19;100.00
53262;BME280;39658;51.090;-1.786;2023-05-23T10:51:48;101597.75;;;18.00;100.00
53262;BME280;39658;51.090;-1.786;2023-05-23T10:54:17;101614.59;;;17.68;100.00
53262;BME280;39658;51.090;-1.786;2023-05-23T10:56:45;101545.91;;;17.49;100.00
53262;BME280;39658;51.090;-1.786;2023-05-23T10:59:19;101526.41;;;17.49;100.00
53262;BME280;39658;51.090;-1.786;2023-05-23T11:01:50;101554.81;;;18.03;100.00
53262;BME280;39658;51.090;-1.786;2023-05-23T11:04:25;101593.03;;;18.46;100.00
53262;BME280;39658;51.090;-1.786;2023-05-23T11:06:53;101610.34;;;18.82;100.00
53262;BME280;39658;51.090;-1.786;2023-05-23T11:09:21;101643.53;;;18.80;100.00
53262;BME280;39658;51.090;-1.786;2023-05-23T11:11:55;101630.19;;;18.80;100.00
53262;BME280;39658;51.090;-1.786;2023-05-23T11:14:32;101610.34;;;19.04;100.00
53262;BME280;39658;51.090;-1.786;2023-05-23T11:17:00;101683.22;;;19.15;100.00
53262;BME280;39658;51.090;-1.786;2023-05-23T11:19:54;101685.69;;;19.28;100.00
53262;BME280;39658;51.090;-1.786;2023-05-23T11:22:26;101675.53;;;19.22;100.00
53262;BME280;39658;51.090;-1.786;2023-05-23T11:24:54;101674.47;;;19.04;100.00
53262;BME280;39658;51.090;-1.786;2023-05-23T11:27:28;101669.59;;;18.88;100.00
53262;BME280;39658;51.090;-1.786;2023-05-23T11:29:59;101662.13;;;18.60;100.00
53262;BME280;39658;51.090;-1.786;2023-05-23T11:32:30;101670.78;;;18.53;100.00
53262;BME280;39658;51.090;-1.786;2023-05-23T11:35:24;101645.50;;;18.36;100.00
53262;BME280;39658;51.090;-1.786;2023-05-23T11:37:56;101653.31;;;18.48;100.00
53262;BME280;39658;51.090;-1.786;2023-05-23T11:40:46;101627.84;;;18.65;100.00
53262;BME280;39658;51.090;-1.786;2023-05-23T11:43:30;101623.91;;;18.91;100.00
53262;BME280;39658;51.090;-1.786;2023-05-23T11:46:09;101645.50;;;19.09;100.00
53262;BME280;39658;51.090;-1.786;2023-05-23T11:48:43;101601.88;;;19.39;100.00
53262;BME280;39658;51.090;-1.786;2023-05-23T11:51:12;101626.66;;;19.61;100.00
53262;BME280;39658;51.090;-1.786;2023-05-23T11:53:39;101700.28;;;19.55;100.00
53262;BME280;39658;51.090;-1.786;2023-05-23T11:56:07;101673.56;;;19.74;100.00
53262;BME280;39658;51.090;-1.786;2023-05-23T11:58:40;101667.63;;;19.61;100.00
53262;BME280;39658;51.090;-1.786;2023-05-23T12:01:38;101656.34;;;19.48;100.00
53262;BME280;39658;51.090;-1.786;2023-05-23T12:04:41;101620.22;;;20.02;100.00
53262;BME280;39658;51.090;-1.786;2023-05-23T12:07:18;101601.81;;;20.66;100.00
53262;BME280;39658;51.090;-1.786;2023-05-23T12:09:54;101633.28;;;20.44;100.00
53262;BME280;39658;51.090;-1.786;2023-05-23T12:12:32;101688.84;;;20.42;100.00
53262;BME280;39658;51.090;-1.786;2023-05-23T12:15:02;101742.28;;;20.34;100.00
53262;BME280;39658;51.090;-1.786;2023-05-23T12:17:29;101679.69;;;20.25;100.00
53262;BME280;39658;51.090;-1.786;2023-05-23T12:19:57;101715.47;;;19.95;100.00
53262;BME280;39658;51.090;-1.786;2023-05-23T12:22:26;101739.56;;;20.05;100.00
53262;BME280;39658;51.090;-1.786;2023-05-23T12:24:54;101706.28;;;19.88;100.00
53262;BME280;39658;51.090;-1.786;2023-05-23T12:27:26;101726.75;;;20.38;100.00
53262;BME280;39658;51.090;-1.786;2023-05-23T12:30:05;101743.66;;;21.34;100.00
53262;BME280;39658;51.090;-1.786;2023-05-23T12:32:33;101735.88;;;21.97;100.00
53262;BME280;39658;51.090;-1.786;2023-05-23T12:35:00;101741.44;;;22.13;100.00
53262;BME280;39658;51.090;-1.786;2023-05-23T12:37:29;101710.81;;;22.86;100.00
53262;BME280;39658;51.090;-1.786;2023-05-23T12:39:55;101813.88;;;22.23;85.87
53262;BME280;39658;51.090;-1.786;2023-05-23T12:42:22;101795.53;;;21.73;95.64
53262;BME280;39658;51.090;-1.786;2023-05-23T12:44:52;101766.75;;;21.93;100.00
53262;BME280;39658;51.090;-1.786;2023-05-23T12:47:19;101775.94;;;21.90;100.00